Time;durP1;ratioP1;P1;durP2;ratioP2;P2;SDS_P1;SDS_P2;PMS_P1;PMS_P2;Temp;Humidity;BMP_temperature;BMP_pressure;BME280_temperature;BME280_humidity;BME280_pressure;Samples;Min_cycle;Max_cycle;Signal;HPM_P1;HPM_P2
2023/09/23 00:00:35;;;;;;;;;;;;;;;24.15;50.68;100654.53;7397454;19;1628;-38
2023/09/23 00:03:04;;;;;;;;;;;;;;;24.16;50.84;100656.19;7397918;19;1645;-37
2023/09/23 00:05:35;;;;;;;;;;;;;;;24.17;51.08;100655.19;7397925;19;1586;-37
2023/09/23 00:08:03;;;;;;;;;;;;;;;24.22;50.91;100650.09;7397281;19;1627;-37
2023/09/23 00:10:32;;;;;;;;;;;;;;;24.19;50.93;100650.47;7397094;19;1822;-38
2023/09/23 00:13:01;;;;;;;;;;;;;;;24.20;51.09;100656.69;7397732;19;1829;-38
2023/09/23 00:15:29;;;;;;;;;;;;;;;24.22;50.78;100649.25;7397033;19;2542;-44
2023/09/23 00:18:01;;;;;;;;;;;;;;;24.20;51.00;100665.63;7397418;19;1859;-44
2023/09/23 00:20:29;;;;;;;;;;;;;;;24.21;50.97;100658.38;7397159;19;1631;-44
2023/09/23 00:22:57;;;;;;;;;;;;;;;24.20;50.97;100662.09;7397554;19;1723;-43
2023/09/23 00:25:26;;;;;;;;;;;;;;;24.10;51.07;100656.88;7397244;19;1816;-45
2023/09/23 00:27:55;;;;;;;;;;;;;;;24.10;51.07;100651.47;7397917;19;1739;-45
2023/09/23 00:30:23;;;;;;;;;;;;;;;24.06;50.82;100650.13;7397647;19;1348;-44
2023/09/23 00:32:52;;;;;;;;;;;;;;;24.02;51.00;100644.22;7397205;19;1936;-44
2023/09/23 00:35:23;;;;;;;;;;;;;;;24.07;51.26;100654.50;7397821;19;1765;-43
2023/09/23 00:37:51;;;;;;;;;;;;;;;24.13;51.51;100663.78;7394669;19;1871;-44
2023/09/23 00:40:27;;;;;;;;;;;;;;;24.14;51.33;100665.50;7397848;19;1733;-45
2023/09/23 00:42:58;;;;;;;;;;;;;;;24.14;51.21;100668.19;7381718;19;1389;-44
2023/09/23 00:45:29;;;;;;;;;;;;;;;24.06;51.30;100660.94;7395836;19;1527;-43
2023/09/23 00:47:57;;;;;;;;;;;;;;;24.04;51.35;100681.88;7396827;19;1374;-44
2023/09/23 00:50:29;;;;;;;;;;;;;;;24.05;51.57;100661.94;7396221;19;1521;-43
2023/09/23 00:53:04;;;;;;;;;;;;;;;24.10;51.52;100656.88;7396314;19;1429;-44
2023/09/23 00:55:40;;;;;;;;;;;;;;;24.02;51.59;100659.59;7395491;19;1623;-44
2023/09/23 00:58:14;;;;;;;;;;;;;;;24.05;51.36;100664.66;7395354;19;1846;-44
2023/09/23 01:00:43;;;;;;;;;;;;;;;23.96;51.34;100671.09;7397446;19;1561;-44
2023/09/23 01:03:12;;;;;;;;;;;;;;;23.96;51.34;100649.50;7396813;19;1619;-37
2023/09/23 01:05:43;;;;;;;;;;;;;;;24.07;51.26;100657.22;7396550;19;1607;-44
2023/09/23 01:08:25;;;;;;;;;;;;;;;23.98;51.52;100658.25;7395865;19;1674;-43
2023/09/23 01:10:53;;;;;;;;;;;;;;;23.97;51.59;100652.03;7396535;19;1555;-38
2023/09/23 01:13:24;;;;;;;;;;;;;;;23.98;51.68;100651.00;7396662;19;1801;-37
2023/09/23 01:15:53;;;;;;;;;;;;;;;24.08;51.54;100658.09;7396941;19;2018;-38
2023/09/23 01:18:28;;;;;;;;;;;;;;;24.03;51.41;100658.56;7396357;19;1851;-38
2023/09/23 01:21:00;;;;;;;;;;;;;;;24.05;51.55;100656.53;7396323;19;1836;-38
2023/09/23 01:23:31;;;;;;;;;;;;;;;23.97;51.56;100659.25;7396302;19;1926;-38
2023/09/23 01:26:00;;;;;;;;;;;;;;;23.93;51.50;100663.31;7396227;19;1770;-38
2023/09/23 01:28:28;;;;;;;;;;;;;;;24.03;51.48;100663.97;7395883;19;1493;-38
2023/09/23 01:30:59;;;;;;;;;;;;;;;24.07;51.48;100673.44;7396543;19;1801;-38
2023/09/23 01:33:29;;;;;;;;;;;;;;;24.13;51.39;100664.66;7395220;19;1638;-38
2023/09/23 01:36:02;;;;;;;;;;;;;;;24.16;51.59;100671.56;7394172;19;1738;-38
2023/09/23 01:38:33;;;;;;;;;;;;;;;24.08;51.47;100677.81;7395265;19;1857;-38
2023/09/23 01:41:03;;;;;;;;;;;;;;;23.99;51.62;100674.31;7395379;19;1532;-37
2023/09/23 01:43:32;;;;;;;;;;;;;;;23.98;51.40;100671.78;7381188;19;1406;-39
2023/09/23 01:46:03;;;;;;;;;;;;;;;23.89;51.67;100660.13;7396146;19;1730;-38
2023/09/23 01:48:32;;;;;;;;;;;;;;;23.88;51.78;100674.66;7396169;19;1552;-37
2023/09/23 01:51:02;;;;;;;;;;;;;;;23.94;51.83;100683.94;7402285;19;1789;-38
2023/09/23 01:53:33;;;;;;;;;;;;;;;23.86;51.85;100673.13;7402730;19;1777;-38
2023/09/23 01:56:01;;;;;;;;;;;;;;;23.89;51.73;100670.09;7402863;19;1488;-38
2023/09/23 01:58:29;;;;;;;;;;;;;;;23.85;51.80;100664.16;7402468;19;1861;-38
2023/09/23 02:00:58;;;;;;;;;;;;;;;23.88;51.96;100669.25;7402197;19;1741;-37
2023/09/23 02:03:27;;;;;;;;;;;;;;;23.94;51.84;100667.72;7401380;19;1781;-38
2023/09/23 02:05:55;;;;;;;;;;;;;;;23.85;51.79;100668.72;7401238;19;1761;-37
2023/09/23 02:08:24;;;;;;;;;;;;;;;23.81;51.95;100673.63;7402404;19;1555;-37
2023/09/23 02:10:54;;;;;;;;;;;;;;;23.81;51.97;100669.09;7402664;19;1654;-38
2023/09/23 02:13:23;;;;;;;;;;;;;;;23.98;51.92;100682.56;7400881;19;2631;-44
2023/09/23 02:15:55;;;;;;;;;;;;;;;23.92;51.99;100685.97;7402461;19;1563;-43
2023/09/23 02:18:24;;;;;;;;;;;;;;;23.99;51.98;100681.53;7400832;19;1869;-45
2023/09/23 02:20:52;;;;;;;;;;;;;;;23.98;51.66;100677.16;7401485;19;1555;-44
2023/09/23 02:23:21;;;;;;;;;;;;;;;23.93;51.78;100666.84;7401184;19;1892;-45
2023/09/23 02:25:50;;;;;;;;;;;;;;;23.87;51.70;100681.03;7398075;19;2414;-44
2023/09/23 02:28:21;;;;;;;;;;;;;;;23.90;51.78;100677.19;7399575;19;1749;-44
2023/09/23 02:30:49;;;;;;;;;;;;;;;23.86;52.01;100702.84;7402615;19;1405;-52
2023/09/23 02:33:17;;;;;;;;;;;;;;;23.92;51.65;100691.34;7401863;19;1445;-44
2023/09/23 02:35:45;;;;;;;;;;;;;;;23.83;51.78;100687.81;7402505;19;1652;-44
2023/09/23 02:38:14;;;;;;;;;;;;;;;23.86;51.86;100710.94;7402096;19;1809;-45
2023/09/23 02:40:43;;;;;;;;;;;;;;;23.81;51.82;100695.22;7398950;19;1843;-45
2023/09/23 02:43:11;;;;;;;;;;;;;;;23.74;51.90;100694.19;7385743;19;1520;-44
2023/09/23 02:45:42;;;;;;;;;;;;;;;23.77;52.24;100715.44;7399267;19;1814;-45
2023/09/23 02:48:13;;;;;;;;;;;;;;;23.78;51.81;100695.59;7399514;19;1829;-45
2023/09/23 02:50:42;;;;;;;;;;;;;;;23.81;51.98;100693.41;7401147;19;1758;-44
2023/09/23 02:53:10;;;;;;;;;;;;;;;23.76;51.74;100693.00;7400611;19;1322;-43
2023/09/23 02:55:41;;;;;;;;;;;;;;;23.75;51.72;100704.81;7400089;19;1739;-44
2023/09/23 02:58:10;;;;;;;;;;;;;;;23.82;51.72;100700.47;7401174;19;1560;-44
2023/09/23 03:00:40;;;;;;;;;;;;;;;23.71;51.83;100695.34;7398144;19;1815;-44
2023/09/23 03:03:19;;;;;;;;;;;;;;;23.67;52.11;100703.97;7399249;19;1674;-44
2023/09/23 03:05:54;;;;;;;;;;;;;;;23.76;51.87;100719.19;7400518;19;1529;-44
2023/09/23 03:08:23;;;;;;;;;;;;;;;23.75;51.99;100707.50;7400321;19;1508;-44
2023/09/23 03:10:52;;;;;;;;;;;;;;;23.70;51.85;100707.19;7398621;19;1563;-44
2023/09/23 03:13:23;;;;;;;;;;;;;;;23.65;52.20;100712.22;7399310;19;1771;-44
2023/09/23 03:15:53;;;;;;;;;;;;;;;23.66;52.19;100699.59;7399517;19;1611;-44
2023/09/23 03:18:33;;;;;;;;;;;;;;;23.72;51.95;100707.88;7400023;19;1551;-44
2023/09/23 03:21:07;;;;;;;;;;;;;;;23.62;52.38;100709.88;7393838;19;1854;-44
2023/09/23 03:23:37;;;;;;;;;;;;;;;23.71;52.05;100714.25;7395921;19;1232;-44
2023/09/23 03:26:06;;;;;;;;;;;;;;;23.74;51.76;100711.25;7398760;19;1574;-44
2023/09/23 03:28:35;;;;;;;;;;;;;;;23.69;52.12;100715.44;7396118;19;1334;-63
2023/09/23 03:31:05;;;;;;;;;;;;;;;23.60;52.06;100720.00;7400033;19;1906;-44
2023/09/23 03:33:36;;;;;;;;;;;;;;;23.61;52.18;100727.91;7399030;19;1552;-44
2023/09/23 03:36:05;;;;;;;;;;;;;;;23.68;52.03;100708.38;7397086;19;1523;-44
2023/09/23 03:38:34;;;;;;;;;;;;;;;23.62;52.18;100713.44;7398922;19;1730;-44
2023/09/23 03:41:03;;;;;;;;;;;;;;;23.62;52.36;100720.69;7393298;19;1853;-44
2023/09/23 03:43:31;;;;;;;;;;;;;;;23.57;52.26;100714.94;7384503;19;1338;-45
2023/09/23 03:46:00;;;;;;;;;;;;;;;23.59;52.50;100712.91;7399812;19;1737;-44
2023/09/23 03:48:28;;;;;;;;;;;;;;;23.61;52.29;100716.28;7399475;19;1804;-44
2023/09/23 03:50:59;;;;;;;;;;;;;;;23.57;52.18;100714.94;7397576;19;1956;-44
2023/09/23 03:53:27;;;;;;;;;;;;;;;23.63;52.24;100719.66;7398007;19;1662;-44
2023/09/23 03:55:56;;;;;;;;;;;;;;;23.56;52.34;100726.75;7397998;19;1485;-45
2023/09/23 03:58:25;;;;;;;;;;;;;;;23.66;52.33;100724.75;7396963;19;1472;-44
2023/09/23 04:00:54;;;;;;;;;;;;;;;23.12;52.61;100635.25;7397033;19;1837;-44
2023/09/23 04:03:22;;;;;;;;;;;;;;;23.79;52.43;100733.19;7397052;19;1681;-44
2023/09/23 04:05:57;;;;;;;;;;;;;;;23.95;52.63;100721.53;7393395;19;1318;-44
2023/09/23 04:08:28;;;;;;;;;;;;;;;24.20;52.07;100724.25;7395133;19;1562;-44
2023/09/23 04:10:57;;;;;;;;;;;;;;;24.21;52.15;100732.19;7399080;19;1571;-44
2023/09/23 04:13:26;;;;;;;;;;;;;;;24.19;52.27;100745.03;7396809;19;1959;-44
2023/09/23 04:15:55;;;;;;;;;;;;;;;24.28;52.20;100745.00;7397102;19;1967;-44
2023/09/23 04:18:23;;;;;;;;;;;;;;;24.20;52.09;100744.00;7398458;19;1739;-45
2023/09/23 04:20:53;;;;;;;;;;;;;;;24.24;52.28;100744.50;7396530;19;1843;-44
2023/09/23 04:23:21;;;;;;;;;;;;;;;24.28;52.33;100756.66;7397029;19;1386;-43
2023/09/23 04:25:53;;;;;;;;;;;;;;;24.22;52.27;100762.75;7397446;19;1830;-44
2023/09/23 04:28:22;;;;;;;;;;;;;;;24.30;51.98;100753.78;7398246;19;1709;-44
2023/09/23 04:30:54;;;;;;;;;;;;;;;24.28;52.24;100769.34;7397089;19;1734;-44
2023/09/23 04:33:22;;;;;;;;;;;;;;;24.35;52.20;100762.22;7395596;19;1440;-44
2023/09/23 04:35:51;;;;;;;;;;;;;;;24.33;52.12;100757.00;7397462;19;1493;-45
2023/09/23 04:38:20;;;;;;;;;;;;;;;24.29;52.41;100779.13;7397289;19;1333;-45
2023/09/23 04:40:49;;;;;;;;;;;;;;;24.28;52.53;100755.81;7394982;19;1835;-44
2023/09/23 04:43:20;;;;;;;;;;;;;;;24.37;52.22;100771.00;7388382;19;1437;-45
2023/09/23 04:45:48;;;;;;;;;;;;;;;24.36;52.33;100774.72;7392683;19;1609;-44
2023/09/23 04:48:18;;;;;;;;;;;;;;;24.27;52.61;100764.94;7396101;19;1489;-44
2023/09/23 04:50:47;;;;;;;;;;;;;;;24.35;52.27;100756.81;7396399;19;1410;-44
2023/09/23 04:53:16;;;;;;;;;;;;;;;24.49;52.12;100769.66;7394772;19;1370;-44
2023/09/23 04:55:45;;;;;;;;;;;;;;;24.43;52.55;100773.00;7396096;19;1611;-44
2023/09/23 04:58:14;;;;;;;;;;;;;;;24.26;53.02;100769.50;7395311;19;1286;-44
2023/09/23 05:00:44;;;;;;;;;;;;;;;24.25;53.26;100767.78;7392620;19;1842;-44
2023/09/23 05:03:13;;;;;;;;;;;;;;;24.44;52.55;100772.00;7392901;19;1412;-44
2023/09/23 05:05:41;;;;;;;;;;;;;;;24.36;53.17;100785.53;7392972;19;1432;-44
2023/09/23 05:08:10;;;;;;;;;;;;;;;24.72;53.10;100768.94;7392546;19;1446;-44
2023/09/23 05:10:39;;;;;;;;;;;;;;;25.04;51.46;100773.38;7395764;19;1467;-44
2023/09/23 05:13:09;;;;;;;;;;;;;;;25.09;51.75;100771.00;7394718;19;1425;-44
2023/09/23 05:15:37;;;;;;;;;;;;;;;25.34;51.34;100773.63;7394873;19;1508;-44
2023/09/23 05:18:09;;;;;;;;;;;;;;;25.06;52.16;100770.50;7394775;19;1547;-44
2023/09/23 05:20:37;;;;;;;;;;;;;;;25.04;52.16;100772.56;7392786;19;1849;-45
2023/09/23 05:23:07;;;;;;;;;;;;;;;24.79;52.73;100780.78;7393794;19;1342;-44
2023/09/23 05:25:36;;;;;;;;;;;;;;;24.58;53.27;100776.75;7393531;19;1340;-44
2023/09/23 05:28:06;;;;;;;;;;;;;;;24.49;53.65;100780.47;7396007;19;1343;-44
2023/09/23 05:30:34;;;;;;;;;;;;;;;24.52;53.93;100785.53;7395691;19;1799;-44
2023/09/23 05:33:03;;;;;;;;;;;;;;;24.41;53.97;100796.66;7393027;19;2057;-38
2023/09/23 05:35:35;;;;;;;;;;;;;;;24.49;53.42;100791.28;7394755;19;1660;-40
2023/09/23 05:38:04;;;;;;;;;;;;;;;24.63;53.33;100797.00;7394585;19;1286;-39
2023/09/23 05:40:36;;;;;;;;;;;;;;;24.54;53.67;100788.91;7393866;19;1839;-39
2023/09/23 05:43:06;;;;;;;;;;;;;;;24.48;54.05;100805.78;7394949;19;1659;-39
2023/09/23 05:45:34;;;;;;;;;;;;;;;24.29;54.61;100793.50;7380341;19;1643;-39
2023/09/23 05:48:04;;;;;;;;;;;;;;;24.40;54.34;100803.09;7393709;19;1528;-40
2023/09/23 05:50:35;;;;;;;;;;;;;;;24.52;54.01;100793.66;7393982;19;1590;-39
2023/09/23 05:53:04;;;;;;;;;;;;;;;24.41;54.42;100831.81;7388458;19;1224;-39
2023/09/23 05:55:32;;;;;;;;;;;;;;;24.34;55.04;100799.22;7393271;19;1242;-39
2023/09/23 05:58:01;;;;;;;;;;;;;;;24.31;55.63;100820.31;7391912;19;1340;-39
2023/09/23 06:00:29;;;;;;;;;;;;;;;24.32;55.41;100805.81;7391157;19;1853;-39
2023/09/23 06:02:58;;;;;;;;;;;;;;;24.39;55.44;100817.63;7392991;19;1289;-39
2023/09/23 06:05:27;;;;;;;;;;;;;;;24.41;55.17;100799.38;7389789;19;1500;-39
2023/09/23 06:07:57;;;;;;;;;;;;;;;24.42;55.14;100822.69;7393706;19;1488;-39
2023/09/23 06:10:26;;;;;;;;;;;;;;;24.40;54.94;100820.16;7393597;19;1321;-39
2023/09/23 06:12:54;;;;;;;;;;;;;;;24.43;55.09;100810.84;7393389;19;1283;-39
2023/09/23 06:15:22;;;;;;;;;;;;;;;24.53;54.99;100822.41;7392062;19;1325;-39
2023/09/23 06:17:51;;;;;;;;;;;;;;;24.62;55.00;100812.41;7384537;19;1840;-38
2023/09/23 06:20:19;;;;;;;;;;;;;;;24.84;54.66;100826.22;7374894;19;1873;-38
2023/09/23 06:22:47;;;;;;;;;;;;;;;25.07;53.86;100823.59;7376012;19;2352;-38
2023/09/23 06:25:18;;;;;;;;;;;;;;;25.08;53.88;100817.19;7392407;19;1277;-38
2023/09/23 06:27:48;;;;;;;;;;;;;;;25.05;54.50;100812.09;7394007;19;1136;-37
2023/09/23 06:30:17;;;;;;;;;;;;;;;25.01;53.83;100834.13;7392974;19;1517;-39
2023/09/23 06:32:47;;;;;;;;;;;;;;;25.16;53.57;100815.28;7388371;19;1516;-37
2023/09/23 06:35:15;;;;;;;;;;;;;;;24.90;54.48;100818.25;7393390;19;1564;-38
2023/09/23 06:37:44;;;;;;;;;;;;;;;24.75;54.83;100819.97;7395277;19;1642;-37
2023/09/23 06:40:12;;;;;;;;;;;;;;;24.75;54.62;100828.94;7400466;19;1842;-38
2023/09/23 06:42:43;;;;;;;;;;;;;;;24.69;55.03;100834.19;7400870;19;1367;-37
2023/09/23 06:45:12;;;;;;;;;;;;;;;24.65;54.61;100854.47;7386261;19;1599;-37
2023/09/23 06:47:40;;;;;;;;;;;;;;;24.78;54.80;100833.16;7399401;19;1442;-37
2023/09/23 06:50:09;;;;;;;;;;;;;;;24.96;54.29;100839.19;7397922;19;1549;-38
2023/09/23 06:52:37;;;;;;;;;;;;;;;24.85;54.88;100839.56;7399224;19;1445;-37
2023/09/23 06:55:05;;;;;;;;;;;;;;;24.96;55.10;100844.59;7399349;19;1960;-38
2023/09/23 06:57:35;;;;;;;;;;;;;;;24.84;55.27;100832.47;7400735;19;1487;-38
2023/09/23 07:00:07;;;;;;;;;;;;;;;24.85;55.53;100838.72;7399238;19;1846;-37
2023/09/23 07:02:36;;;;;;;;;;;;;;;24.83;55.67;100847.03;7399621;19;1661;-38
2023/09/23 07:05:04;;;;;;;;;;;;;;;25.00;55.24;100843.22;7397517;19;1446;-38
2023/09/23 07:07:32;;;;;;;;;;;;;;;25.06;54.62;100840.88;7400345;19;1405;-37
2023/09/23 07:10:01;;;;;;;;;;;;;;;24.94;55.32;100826.88;7400413;19;1498;-38
2023/09/23 07:12:29;;;;;;;;;;;;;;;24.83;55.73;100838.91;7399285;19;1738;-38
2023/09/23 07:14:57;;;;;;;;;;;;;;;24.89;55.46;100846.31;7399888;19;1564;-37
2023/09/23 07:17:28;;;;;;;;;;;;;;;24.93;55.77;100858.50;7399489;19;1481;-37
2023/09/23 07:19:56;;;;;;;;;;;;;;;25.00;55.44;100856.75;7398370;19;1438;-38
2023/09/23 07:22:25;;;;;;;;;;;;;;;24.92;55.63;100840.56;7395926;19;1907;-40
2023/09/23 07:24:53;;;;;;;;;;;;;;;24.61;55.32;100773.72;7398878;19;1401;-40
2023/09/23 07:27:22;;;;;;;;;;;;;;;25.30;54.56;100842.66;7398749;19;1480;-41
2023/09/23 07:29:50;;;;;;;;;;;;;;;25.34;54.31;100855.66;7399540;19;1343;-40
2023/09/23 07:32:19;;;;;;;;;;;;;;;25.37;54.62;100854.50;7398588;19;1362;-40
2023/09/23 07:34:50;;;;;;;;;;;;;;;25.12;55.32;100846.41;7397740;19;1521;-40
2023/09/23 07:37:18;;;;;;;;;;;;;;;25.09;56.08;100840.50;7399999;19;1324;-40
2023/09/23 07:39:47;;;;;;;;;;;;;;;24.99;56.85;100849.69;7395133;19;1517;-40
2023/09/23 07:42:15;;;;;;;;;;;;;;;25.11;56.35;100841.16;7393177;19;1853;-40
2023/09/23 07:44:43;;;;;;;;;;;;;;;25.12;56.52;100842.88;7382241;19;1561;-40
2023/09/23 07:47:12;;;;;;;;;;;;;;;24.96;56.58;100841.91;7396675;19;1616;-40
2023/09/23 07:49:40;;;;;;;;;;;;;;;25.01;56.38;100844.94;7397390;19;1608;-40
2023/09/23 07:52:11;;;;;;;;;;;;;;;24.95;56.88;100848.34;7394579;19;1396;-40
2023/09/23 07:54:40;;;;;;;;;;;;;;;25.10;56.26;100850.31;7390685;19;1560;-40
2023/09/23 07:57:08;;;;;;;;;;;;;;;25.07;56.73;100842.53;7394399;19;1354;-39
2023/09/23 07:59:36;;;;;;;;;;;;;;;24.94;57.54;100849.34;7394626;19;1449;-39
2023/09/23 08:02:05;;;;;;;;;;;;;;;24.89;57.97;100840.91;7395719;19;1837;-40
2023/09/23 08:04:33;;;;;;;;;;;;;;;24.34;58.31;100785.72;7394675;19;1398;-40
2023/09/23 08:07:01;;;;;;;;;;;;;;;24.86;58.61;100835.00;7396174;19;1680;-40
2023/09/23 08:09:32;;;;;;;;;;;;;;;24.88;58.37;100832.97;7398257;19;1639;-40
2023/09/23 08:12:00;;;;;;;;;;;;;;;24.90;59.03;100825.53;7398591;19;1576;-40
2023/09/23 08:14:29;;;;;;;;;;;;;;;24.93;58.60;100835.97;7397678;19;1650;-40
2023/09/23 08:16:57;;;;;;;;;;;;;;;24.91;58.57;100825.34;7395402;19;1525;-41
2023/09/23 08:19:26;;;;;;;;;;;;;;;24.96;58.10;100841.91;7391269;19;1567;-40
2023/09/23 08:21:54;;;;;;;;;;;;;;;24.93;59.41;100838.69;7389585;19;1859;-42
2023/09/23 08:24:23;;;;;;;;;;;;;;;24.85;58.66;100817.94;7398325;19;1661;-40
2023/09/23 08:26:54;;;;;;;;;;;;;;;24.73;58.17;100825.56;7397922;19;1648;-40
2023/09/23 08:29:23;;;;;;;;;;;;;;;24.53;58.35;100830.50;7397103;19;1831;-41
2023/09/23 08:31:52;;;;;;;;;;;;;;;24.55;55.73;100828.47;7397222;19;1386;-41
2023/09/23 08:34:20;;;;;;;;;;;;;;;24.46;54.20;100813.22;7398137;19;1387;-40
2023/09/23 08:36:48;;;;;;;;;;;;;;;24.45;55.05;100825.03;7397121;19;1519;-58
2023/09/23 08:39:18;;;;;;;;;;;;;;;24.49;53.57;100833.66;7397629;19;1830;-40
2023/09/23 08:41:51;;;;;;;;;;;;;;;24.64;55.12;100837.41;7394630;19;1845;-40
2023/09/23 08:44:22;;;;;;;;;;;;;;;24.79;56.02;100821.34;7397476;19;1566;-40
2023/09/23 08:46:52;;;;;;;;;;;;;;;24.93;55.80;100820.63;7381520;19;1505;-40
2023/09/23 08:49:21;;;;;;;;;;;;;;;24.97;55.68;100811.13;7395541;19;1477;-42
2023/09/23 08:51:52;;;;;;;;;;;;;;;24.99;56.21;100819.91;7397544;19;1403;-42
2023/09/23 08:54:22;;;;;;;;;;;;;;;25.32;55.23;100814.41;7397952;19;1688;-41
2023/09/23 08:56:52;;;;;;;;;;;;;;;25.21;56.77;100817.47;7398026;19;1537;-40
2023/09/23 08:59:26;;;;;;;;;;;;;;;25.24;56.66;100814.44;7396181;19;1599;-41
2023/09/23 09:01:55;;;;;;;;;;;;;;;25.30;57.15;100816.44;7395742;19;2262;-42
2023/09/23 09:04:23;;;;;;;;;;;;;;;25.39;56.57;100804.56;7397343;19;1593;-41
2023/09/23 09:06:52;;;;;;;;;;;;;;;25.54;56.08;100812.75;7398272;19;1449;-41
2023/09/23 09:09:21;;;;;;;;;;;;;;;25.53;56.04;100821.09;7397331;19;1742;-41
2023/09/23 09:11:49;;;;;;;;;;;;;;;25.44;57.21;100817.56;7395534;19;1648;-41
2023/09/23 09:14:18;;;;;;;;;;;;;;;25.45;56.92;100813.00;7396337;19;1516;-42
2023/09/23 09:16:49;;;;;;;;;;;;;;;25.50;57.09;100805.19;7395089;19;1470;-40
2023/09/23 09:19:19;;;;;;;;;;;;;;;25.63;56.60;100805.44;7395666;19;1564;-42
2023/09/23 09:21:47;;;;;;;;;;;;;;;25.65;56.63;100808.81;7394019;19;1855;-42
2023/09/23 09:24:16;;;;;;;;;;;;;;;25.58;56.45;100829.50;7388307;19;1742;-41
2023/09/23 09:26:47;;;;;;;;;;;;;;;25.54;56.50;100828.16;7390434;19;1360;-42
2023/09/23 09:29:16;;;;;;;;;;;;;;;25.60;55.95;100805.78;7394761;19;1390;-41
2023/09/23 09:31:44;;;;;;;;;;;;;;;25.37;57.37;100816.59;7392149;19;1642;-41
2023/09/23 09:34:16;;;;;;;;;;;;;;;25.33;57.80;100807.97;7396164;19;1387;-41
2023/09/23 09:36:44;;;;;;;;;;;;;;;25.58;56.61;100797.84;7394498;19;1306;-41
2023/09/23 09:39:16;;;;;;;;;;;;;;;25.62;56.99;100801.03;7394090;19;1356;-41
2023/09/23 09:41:48;;;;;;;;;;;;;;;25.71;56.96;100794.56;7390184;19;1842;-42
2023/09/23 09:44:21;;;;;;;;;;;;;;;25.55;57.10;100802.78;7392610;19;1398;-41
2023/09/23 09:46:50;;;;;;;;;;;;;;;25.35;57.67;100797.81;7380226;19;1331;-41
2023/09/23 09:49:22;;;;;;;;;;;;;;;25.28;58.57;100798.69;7395211;19;1524;-41
2023/09/23 09:51:51;;;;;;;;;;;;;;;24.45;59.11;100810.69;7395710;19;1553;-41
2023/09/23 09:54:20;;;;;;;;;;;;;;;24.15;57.71;100788.75;7394321;19;1520;-40
2023/09/23 09:56:51;;;;;;;;;;;;;;;23.88;57.65;100803.44;7396027;19;1557;-41
2023/09/23 09:59:28;;;;;;;;;;;;;;;23.71;58.15;100789.84;7395350;19;1428;-40
2023/09/23 10:01:58;;;;;;;;;;;;;;;23.72;58.17;100794.25;7390917;19;1857;-42
2023/09/23 10:04:34;;;;;;;;;;;;;;;23.65;58.13;100790.53;7390925;19;1263;-40
2023/09/23 10:07:02;;;;;;;;;;;;;;;23.68;58.08;100798.31;7390248;19;1699;-40
2023/09/23 10:09:32;;;;;;;;;;;;;;;23.53;58.70;100795.38;7392096;19;1326;-41
2023/09/23 10:12:01;;;;;;;;;;;;;;;23.46;59.39;100799.78;7397890;19;1782;-41
2023/09/23 10:14:29;;;;;;;;;;;;;;;23.54;59.62;100797.09;7398146;19;1389;-41
2023/09/23 10:17:01;;;;;;;;;;;;;;;23.63;59.75;100792.53;7397999;19;1590;-40
2023/09/23 10:19:36;;;;;;;;;;;;;;;23.57;60.15;100779.72;7401559;19;1397;-41
2023/09/23 10:22:09;;;;;;;;;;;;;;;23.47;60.49;100781.72;7401260;19;1853;-40
2023/09/23 10:24:37;;;;;;;;;;;;;;;23.48;60.63;100781.56;7402333;19;1564;-40
2023/09/23 10:27:06;;;;;;;;;;;;;;;23.39;60.95;100783.38;7402794;19;1466;-41
2023/09/23 10:29:45;;;;;;;;;;;;;;;23.28;61.11;100775.59;7401469;19;1315;-41
2023/09/23 10:32:14;;;;;;;;;;;;;;;23.39;61.04;100779.84;7402151;19;1630;-41
2023/09/23 10:34:52;;;;;;;;;;;;;;;23.35;60.99;100763.13;7402329;19;1545;-40
2023/09/23 10:37:32;;;;;;;;;;;;;;;23.35;60.86;100771.22;7401296;19;1507;-41
2023/09/23 10:40:09;;;;;;;;;;;;;;;23.29;61.17;100758.38;7400792;19;1587;-41
2023/09/23 10:42:37;;;;;;;;;;;;;;;23.21;61.47;100755.66;7399765;19;1846;-41
2023/09/23 10:45:06;;;;;;;;;;;;;;;23.23;61.42;100756.34;7401554;19;1393;-41
2023/09/23 10:47:35;;;;;;;;;;;;;;;23.17;61.64;100759.69;7385962;19;1465;-41
2023/09/23 10:50:07;;;;;;;;;;;;;;;23.23;61.46;100742.84;7401290;19;1355;-41
2023/09/23 10:52:36;;;;;;;;;;;;;;;23.23;61.17;100737.47;7401300;19;1841;-40
2023/09/23 10:55:05;;;;;;;;;;;;;;;23.22;61.33;100744.72;7400713;19;1659;-41
2023/09/23 10:57:33;;;;;;;;;;;;;;;23.08;61.73;100728.31;7401758;19;1375;-41
2023/09/23 11:00:04;;;;;;;;;;;;;;;23.16;61.37;100725.66;7402043;19;1527;-40
2023/09/23 11:02:35;;;;;;;;;;;;;;;23.21;61.32;100748.41;7399611;19;1847;-40
2023/09/23 11:05:09;;;;;;;;;;;;;;;23.16;61.45;100712.16;7400792;19;1585;-40
2023/09/23 11:07:38;;;;;;;;;;;;;;;23.03;61.81;100724.25;7400864;19;1532;-40
2023/09/23 11:10:07;;;;;;;;;;;;;;;22.94;62.11;100703.63;7400913;19;1813;-41
2023/09/23 11:12:35;;;;;;;;;;;;;;;23.06;61.77;100716.84;7399947;19;1689;-41
2023/09/23 11:15:04;;;;;;;;;;;;;;;23.07;61.76;100707.75;7398703;19;1641;-41
2023/09/23 11:17:34;;;;;;;;;;;;;;;22.97;61.99;100692.50;7401089;19;1583;-40
2023/09/23 11:20:10;;;;;;;;;;;;;;;23.00;61.85;100686.81;7400864;19;1742;-40
2023/09/23 11:22:43;;;;;;;;;;;;;;;22.93;62.21;100685.75;7397083;19;1869;-40
2023/09/23 11:25:12;;;;;;;;;;;;;;;23.12;61.49;100694.59;7400540;19;1286;-40
2023/09/23 11:27:40;;;;;;;;;;;;;;;23.20;61.13;100689.25;7399156;19;1549;-41
2023/09/23 11:30:09;;;;;;;;;;;;;;;23.01;61.76;100682.25;7399787;19;1462;-41
2023/09/23 11:32:38;;;;;;;;;;;;;;;23.07;61.93;100681.63;7399643;19;1484;-40
2023/09/23 11:35:06;;;;;;;;;;;;;;;23.28;60.67;100678.47;7401272;19;1258;-40
2023/09/23 11:37:35;;;;;;;;;;;;;;;23.13;61.34;100669.31;7399924;19;1586;-40
2023/09/23 11:40:06;;;;;;;;;;;;;;;22.87;62.35;100659.44;7398227;19;1655;-40
2023/09/23 11:42:34;;;;;;;;;;;;;;;22.94;61.94;100665.88;7398956;19;1862;-41
2023/09/23 11:45:03;;;;;;;;;;;;;;;23.12;61.35;100663.09;7395810;19;1525;-41
2023/09/23 11:47:31;;;;;;;;;;;;;;;23.17;61.15;100659.88;7381680;19;1530;-41
2023/09/23 11:49:59;;;;;;;;;;;;;;;23.02;62.00;100652.44;7397165;19;1521;-42
2023/09/23 11:52:27;;;;;;;;;;;;;;;23.15;62.98;100661.91;7397049;19;1337;-39
2023/09/23 11:54:56;;;;;;;;;;;;;;;23.23;62.61;100643.88;6869965;19;10000276;-40
2023/09/23 11:57:27;;;;;;;;;;;;;;;23.21;62.70;100650.47;7387678;19;1538;-41
2023/09/23 11:59:56;;;;;;;;;;;;;;;23.18;62.49;100656.19;7387333;19;1913;-40
2023/09/23 12:02:25;;;;;;;;;;;;;;;23.11;62.65;100636.28;7388669;19;1885;-41
2023/09/23 12:04:53;;;;;;;;;;;;;;;23.18;62.35;100672.38;7388243;19;1353;-41
2023/09/23 12:07:23;;;;;;;;;;;;;;;22.92;62.91;100630.16;7389758;19;1358;-40
2023/09/23 12:09:52;;;;;;;;;;;;;;;22.90;63.06;100642.09;7388317;19;1505;-40
2023/09/23 12:12:21;;;;;;;;;;;;;;;22.96;62.80;100634.19;7387543;19;1430;-41
2023/09/23 12:14:52;;;;;;;;;;;;;;;23.08;61.91;100628.50;7389473;19;1635;-41
2023/09/23 12:17:20;;;;;;;;;;;;;;;23.33;61.17;100632.94;7386668;19;1617;-41
2023/09/23 12:19:48;;;;;;;;;;;;;;;23.04;62.34;100625.31;7387498;19;1628;-41
2023/09/23 12:22:17;;;;;;;;;;;;;;;23.10;62.15;100629.19;7392988;19;2463;-41
2023/09/23 12:24:46;;;;;;;;;;;;;;;23.10;62.42;100631.88;7395530;19;1560;-41
2023/09/23 12:27:15;;;;;;;;;;;;;;;23.36;61.57;100612.88;7397558;19;1398;-40
2023/09/23 12:29:43;;;;;;;;;;;;;;;23.25;62.25;100622.13;7397961;19;1468;-40
2023/09/23 12:32:14;;;;;;;;;;;;;;;23.00;62.93;100616.69;7397209;19;1460;-41
2023/09/23 12:34:44;;;;;;;;;;;;;;;23.03;62.91;100616.38;7398069;19;1557;-41
2023/09/23 12:37:12;;;;;;;;;;;;;;;23.35;61.47;100614.72;7398959;19;1739;-41
2023/09/23 12:39:38;;;;;;;;;;;;;;;23.26;61.33;100621.13;7397031;19;1707;-40
2023/09/23 12:42:06;;;;;;;;;;;;;;;22.91;62.92;100606.03;7395990;19;1843;-41
2023/09/23 12:44:34;;;;;;;;;;;;;;;23.23;62.28;100622.28;7397649;19;1305;-41
2023/09/23 12:47:03;;;;;;;;;;;;;;;23.15;62.33;100605.25;7381705;19;1463;-40
2023/09/23 12:49:34;;;;;;;;;;;;;;;23.00;62.92;100594.28;7396738;19;1619;-40
2023/09/23 12:52:02;;;;;;;;;;;;;;;23.19;62.42;100620.94;7388160;19;1412;-41
2023/09/23 12:54:31;;;;;;;;;;;;;;;23.08;62.54;100604.22;7389212;19;2272;-41
2023/09/23 12:56:59;;;;;;;;;;;;;;;23.00;62.58;100594.28;7390487;19;1596;-41